sensor_id;sensor_type;location;lat;lon;timestamp;P1;durP1;ratioP1;P2;durP2;ratioP2
51467;SDS011;37545;45.302;-122.946;2024-03-17T00:00:08;0.17;;;0.17;;
51467;SDS011;37545;45.302;-122.946;2024-03-17T00:02:40;1.00;;;0.47;;
51467;SDS011;37545;45.302;-122.946;2024-03-17T00:05:08;3.47;;;0.88;;
51467;SDS011;37545;45.302;-122.946;2024-03-17T00:07:37;0.40;;;0.30;;
51467;SDS011;37545;45.302;-122.946;2024-03-17T00:10:12;0.73;;;0.40;;
51467;SDS011;37545;45.302;-122.946;2024-03-17T00:12:53;0.83;;;0.40;;
51467;SDS011;37545;45.302;-122.946;2024-03-17T00:15:23;4.18;;;0.40;;
51467;SDS011;37545;45.302;-122.946;2024-03-17T00:17:52;0.60;;;0.57;;
51467;SDS011;37545;45.302;-122.946;2024-03-17T00:20:23;0.98;;;0.50;;
51467;SDS011;37545;45.302;-122.946;2024-03-17T00:22:52;0.57;;;0.20;;
51467;SDS011;37545;45.302;-122.946;2024-03-17T00:25:19;0.88;;;0.40;;
51467;SDS011;37545;45.302;-122.946;2024-03-17T00:27:49;1.70;;;0.70;;
51467;SDS011;37545;45.302;-122.946;2024-03-17T00:30:20;1.48;;;0.40;;
51467;SDS011;37545;45.302;-122.946;2024-03-17T00:32:54;0.85;;;0.30;;
51467;SDS011;37545;45.302;-122.946;2024-03-17T00:35:23;5.80;;;0.65;;
51467;SDS011;37545;45.302;-122.946;2024-03-17T00:37:52;1.73;;;0.22;;
51467;SDS011;37545;45.302;-122.946;2024-03-17T00:40:20;0.60;;;0.30;;
51467;SDS011;37545;45.302;-122.946;2024-03-17T00:42:56;0.73;;;0.30;;
51467;SDS011;37545;45.302;-122.946;2024-03-17T00:45:25;0.85;;;0.40;;
51467;SDS011;37545;45.302;-122.946;2024-03-17T00:47:54;1.93;;;0.53;;
51467;SDS011;37545;45.302;-122.946;2024-03-17T00:50:22;1.02;;;0.70;;
51467;SDS011;37545;45.302;-122.946;2024-03-17T00:52:57;1.00;;;0.30;;
51467;SDS011;37545;45.302;-122.946;2024-03-17T00:55:25;5.25;;;0.52;;
51467;SDS011;37545;45.302;-122.946;2024-03-17T00:57:54;1.27;;;0.32;;
51467;SDS011;37545;45.302;-122.946;2024-03-17T01:00:21;0.50;;;0.38;;
51467;SDS011;37545;45.302;-122.946;2024-03-17T01:02:56;0.57;;;0.30;;
51467;SDS011;37545;45.302;-122.946;2024-03-17T01:05:23;2.15;;;0.30;;
51467;SDS011;37545;45.302;-122.946;2024-03-17T01:07:53;0.22;;;0.22;;
51467;SDS011;37545;45.302;-122.946;2024-03-17T01:10:20;1.08;;;0.40;;
51467;SDS011;37545;45.302;-122.946;2024-03-17T01:12:49;0.40;;;0.20;;
51467;SDS011;37545;45.302;-122.946;2024-03-17T01:15:26;0.73;;;0.25;;
51467;SDS011;37545;45.302;-122.946;2024-03-17T01:17:57;1.75;;;0.40;;
51467;SDS011;37545;45.302;-122.946;2024-03-17T01:20:25;2.03;;;0.20;;
51467;SDS011;37545;45.302;-122.946;2024-03-17T01:23:02;0.70;;;0.40;;
51467;SDS011;37545;45.302;-122.946;2024-03-17T01:25:30;0.93;;;0.40;;
51467;SDS011;37545;45.302;-122.946;2024-03-17T01:28:01;1.38;;;0.60;;
51467;SDS011;37545;45.302;-122.946;2024-03-17T01:30:32;2.35;;;0.38;;
51467;SDS011;37545;45.302;-122.946;2024-03-17T01:33:09;1.27;;;0.30;;
51467;SDS011;37545;45.302;-122.946;2024-03-17T01:35:37;0.10;;;0.10;;
51467;SDS011;37545;45.302;-122.946;2024-03-17T01:38:06;2.65;;;0.40;;
51467;SDS011;37545;45.302;-122.946;2024-03-17T01:40:35;0.20;;;0.20;;
51467;SDS011;37545;45.302;-122.946;2024-03-17T01:43:05;1.13;;;0.50;;
51467;SDS011;37545;45.302;-122.946;2024-03-17T01:45:37;1.35;;;0.40;;
51467;SDS011;37545;45.302;-122.946;2024-03-17T01:48:11;1.48;;;0.40;;
51467;SDS011;37545;45.302;-122.946;2024-03-17T01:50:49;1.83;;;0.40;;
51467;SDS011;37545;45.302;-122.946;2024-03-17T01:53:21;0.98;;;0.40;;
51467;SDS011;37545;45.302;-122.946;2024-03-17T01:55:55;0.80;;;0.45;;
51467;SDS011;37545;45.302;-122.946;2024-03-17T01:58:31;0.30;;;0.30;;
51467;SDS011;37545;45.302;-122.946;2024-03-17T02:01:00;1.65;;;0.75;;
51467;SDS011;37545;45.302;-122.946;2024-03-17T02:03:31;0.80;;;0.50;;
51467;SDS011;37545;45.302;-122.946;2024-03-17T02:06:03;0.82;;;0.50;;
51467;SDS011;37545;45.302;-122.946;2024-03-17T02:11:26;2.72;;;0.47;;
51467;SDS011;37545;45.302;-122.946;2024-03-17T02:13:55;1.95;;;0.60;;
51467;SDS011;37545;45.302;-122.946;2024-03-17T02:16:25;1.50;;;0.43;;
51467;SDS011;37545;45.302;-122.946;2024-03-17T02:18:58;1.45;;;0.50;;
51467;SDS011;37545;45.302;-122.946;2024-03-17T02:21:30;3.30;;;0.55;;
51467;SDS011;37545;45.302;-122.946;2024-03-17T02:23:59;1.05;;;0.38;;
51467;SDS011;37545;45.302;-122.946;2024-03-17T02:26:28;1.48;;;0.50;;
51467;SDS011;37545;45.302;-122.946;2024-03-17T02:28:56;1.60;;;0.63;;
51467;SDS011;37545;45.302;-122.946;2024-03-17T02:31:26;0.95;;;0.50;;
51467;SDS011;37545;45.302;-122.946;2024-03-17T02:33:53;3.50;;;0.70;;
51467;SDS011;37545;45.302;-122.946;2024-03-17T02:36:22;2.83;;;0.60;;
51467;SDS011;37545;45.302;-122.946;2024-03-17T02:38:50;0.98;;;0.75;;
51467;SDS011;37545;45.302;-122.946;2024-03-17T02:41:37;1.23;;;0.60;;
51467;SDS011;37545;45.302;-122.946;2024-03-17T02:44:09;0.50;;;0.43;;
51467;SDS011;37545;45.302;-122.946;2024-03-17T02:46:38;7.45;;;0.73;;
51467;SDS011;37545;45.302;-122.946;2024-03-17T02:49:11;2.35;;;0.60;;
51467;SDS011;37545;45.302;-122.946;2024-03-17T02:51:43;2.55;;;0.65;;
51467;SDS011;37545;45.302;-122.946;2024-03-17T02:54:12;4.30;;;0.80;;
51467;SDS011;37545;45.302;-122.946;2024-03-17T02:56:43;2.60;;;0.90;;
51467;SDS011;37545;45.302;-122.946;2024-03-17T02:59:18;2.35;;;0.93;;
51467;SDS011;37545;45.302;-122.946;2024-03-17T03:01:47;2.05;;;0.80;;
51467;SDS011;37545;45.302;-122.946;2024-03-17T03:04:16;2.90;;;1.05;;
51467;SDS011;37545;45.302;-122.946;2024-03-17T03:06:54;5.07;;;1.23;;
51467;SDS011;37545;45.302;-122.946;2024-03-17T03:09:23;3.45;;;1.88;;
51467;SDS011;37545;45.302;-122.946;2024-03-17T03:11:59;5.57;;;2.17;;
51467;SDS011;37545;45.302;-122.946;2024-03-17T03:14:30;7.93;;;3.10;;
51467;SDS011;37545;45.302;-122.946;2024-03-17T03:17:02;10.00;;;4.68;;
51467;SDS011;37545;45.302;-122.946;2024-03-17T03:19:31;15.18;;;5.88;;
51467;SDS011;37545;45.302;-122.946;2024-03-17T03:22:00;13.25;;;6.00;;
51467;SDS011;37545;45.302;-122.946;2024-03-17T03:24:31;15.65;;;5.97;;
51467;SDS011;37545;45.302;-122.946;2024-03-17T03:27:05;13.82;;;5.28;;
51467;SDS011;37545;45.302;-122.946;2024-03-17T03:29:34;12.75;;;6.00;;
51467;SDS011;37545;45.302;-122.946;2024-03-17T03:32:03;13.15;;;5.50;;
51467;SDS011;37545;45.302;-122.946;2024-03-17T03:34:33;12.82;;;5.05;;
51467;SDS011;37545;45.302;-122.946;2024-03-17T03:37:09;8.63;;;4.00;;
51467;SDS011;37545;45.302;-122.946;2024-03-17T03:39:38;5.93;;;3.53;;
51467;SDS011;37545;45.302;-122.946;2024-03-17T03:42:12;8.93;;;3.85;;
51467;SDS011;37545;45.302;-122.946;2024-03-17T03:44:46;10.48;;;3.60;;
51467;SDS011;37545;45.302;-122.946;2024-03-17T03:47:15;8.30;;;3.20;;
51467;SDS011;37545;45.302;-122.946;2024-03-17T03:49:43;8.43;;;2.80;;
51467;SDS011;37545;45.302;-122.946;2024-03-17T03:52:13;7.68;;;3.17;;
51467;SDS011;37545;45.302;-122.946;2024-03-17T03:54:44;7.97;;;3.35;;
51467;SDS011;37545;45.302;-122.946;2024-03-17T03:57:17;5.65;;;3.00;;
51467;SDS011;37545;45.302;-122.946;2024-03-17T03:59:46;7.67;;;3.23;;
51467;SDS011;37545;45.302;-122.946;2024-03-17T04:02:15;5.43;;;2.05;;
51467;SDS011;37545;45.302;-122.946;2024-03-17T04:05:02;3.53;;;2.28;;
51467;SDS011;37545;45.302;-122.946;2024-03-17T04:07:32;11.70;;;3.15;;
51467;SDS011;37545;45.302;-122.946;2024-03-17T04:10:05;3.90;;;2.13;;
51467;SDS011;37545;45.302;-122.946;2024-03-17T04:12:36;5.72;;;2.33;;
51467;SDS011;37545;45.302;-122.946;2024-03-17T04:15:05;5.53;;;2.75;;
51467;SDS011;37545;45.302;-122.946;2024-03-17T04:17:35;7.00;;;2.72;;
51467;SDS011;37545;45.302;-122.946;2024-03-17T04:20:09;5.85;;;2.90;;
51467;SDS011;37545;45.302;-122.946;2024-03-17T04:22:40;14.30;;;3.78;;
51467;SDS011;37545;45.302;-122.946;2024-03-17T04:25:09;6.93;;;3.40;;
51467;SDS011;37545;45.302;-122.946;2024-03-17T04:27:42;7.13;;;3.30;;
51467;SDS011;37545;45.302;-122.946;2024-03-17T04:30:13;8.20;;;3.70;;
51467;SDS011;37545;45.302;-122.946;2024-03-17T04:32:42;7.45;;;3.65;;
51467;SDS011;37545;45.302;-122.946;2024-03-17T04:35:09;8.07;;;3.17;;
51467;SDS011;37545;45.302;-122.946;2024-03-17T04:37:38;7.50;;;4.22;;
51467;SDS011;37545;45.302;-122.946;2024-03-17T04:40:07;9.25;;;3.58;;
51467;SDS011;37545;45.302;-122.946;2024-03-17T04:42:41;10.02;;;3.67;;
51467;SDS011;37545;45.302;-122.946;2024-03-17T04:45:09;9.35;;;3.25;;
51467;SDS011;37545;45.302;-122.946;2024-03-17T04:47:39;5.47;;;2.80;;
51467;SDS011;37545;45.302;-122.946;2024-03-17T04:50:09;9.75;;;3.17;;
51467;SDS011;37545;45.302;-122.946;2024-03-17T04:52:41;5.40;;;2.95;;
51467;SDS011;37545;45.302;-122.946;2024-03-17T04:55:10;6.80;;;2.95;;
51467;SDS011;37545;45.302;-122.946;2024-03-17T04:57:38;8.48;;;2.70;;
51467;SDS011;37545;45.302;-122.946;2024-03-17T05:00:09;12.13;;;2.78;;
51467;SDS011;37545;45.302;-122.946;2024-03-17T05:02:43;5.72;;;2.58;;
51467;SDS011;37545;45.302;-122.946;2024-03-17T05:05:12;10.80;;;3.20;;
51467;SDS011;37545;45.302;-122.946;2024-03-17T05:07:41;9.20;;;3.30;;
51467;SDS011;37545;45.302;-122.946;2024-03-17T05:10:09;7.63;;;2.13;;
51467;SDS011;37545;45.302;-122.946;2024-03-17T05:12:40;4.80;;;2.22;;
51467;SDS011;37545;45.302;-122.946;2024-03-17T05:15:13;7.50;;;2.50;;
51467;SDS011;37545;45.302;-122.946;2024-03-17T05:17:43;7.50;;;2.55;;
51467;SDS011;37545;45.302;-122.946;2024-03-17T05:20:11;4.32;;;2.10;;
51467;SDS011;37545;45.302;-122.946;2024-03-17T05:22:46;2.08;;;1.35;;
51467;SDS011;37545;45.302;-122.946;2024-03-17T05:25:17;3.42;;;1.60;;
51467;SDS011;37545;45.302;-122.946;2024-03-17T05:27:47;6.50;;;1.80;;
51467;SDS011;37545;45.302;-122.946;2024-03-17T05:30:20;4.50;;;1.70;;
51467;SDS011;37545;45.302;-122.946;2024-03-17T05:32:52;9.82;;;2.53;;
51467;SDS011;37545;45.302;-122.946;2024-03-17T05:35:21;4.63;;;2.10;;
51467;SDS011;37545;45.302;-122.946;2024-03-17T05:37:50;6.35;;;2.35;;
51467;SDS011;37545;45.302;-122.946;2024-03-17T05:40:22;5.78;;;2.22;;
51467;SDS011;37545;45.302;-122.946;2024-03-17T05:42:53;7.47;;;1.73;;
51467;SDS011;37545;45.302;-122.946;2024-03-17T05:45:23;3.07;;;1.80;;
51467;SDS011;37545;45.302;-122.946;2024-03-17T05:47:52;9.07;;;2.20;;
51467;SDS011;37545;45.302;-122.946;2024-03-17T05:50:30;7.35;;;2.00;;
51467;SDS011;37545;45.302;-122.946;2024-03-17T05:52:59;5.03;;;2.03;;
51467;SDS011;37545;45.302;-122.946;2024-03-17T05:55:28;4.70;;;2.05;;
51467;SDS011;37545;45.302;-122.946;2024-03-17T05:58:10;12.18;;;2.38;;
51467;SDS011;37545;45.302;-122.946;2024-03-17T06:00:39;4.22;;;2.10;;
51467;SDS011;37545;45.302;-122.946;2024-03-17T06:03:09;3.63;;;1.85;;
51467;SDS011;37545;45.302;-122.946;2024-03-17T06:05:41;4.40;;;1.90;;
51467;SDS011;37545;45.302;-122.946;2024-03-17T06:08:13;4.93;;;2.35;;
51467;SDS011;37545;45.302;-122.946;2024-03-17T06:10:43;7.05;;;1.98;;
51467;SDS011;37545;45.302;-122.946;2024-03-17T06:13:15;3.63;;;1.95;;
51467;SDS011;37545;45.302;-122.946;2024-03-17T06:15:44;4.47;;;1.70;;
51467;SDS011;37545;45.302;-122.946;2024-03-17T06:18:16;5.97;;;2.03;;
51467;SDS011;37545;45.302;-122.946;2024-03-17T06:20:46;3.63;;;2.00;;
51467;SDS011;37545;45.302;-122.946;2024-03-17T06:23:16;2.55;;;1.70;;
51467;SDS011;37545;45.302;-122.946;2024-03-17T06:25:48;5.80;;;2.10;;
51467;SDS011;37545;45.302;-122.946;2024-03-17T06:28:27;3.08;;;1.42;;
51467;SDS011;37545;45.302;-122.946;2024-03-17T06:30:56;3.53;;;1.80;;
51467;SDS011;37545;45.302;-122.946;2024-03-17T06:33:29;2.55;;;1.13;;
51467;SDS011;37545;45.302;-122.946;2024-03-17T06:36:01;5.77;;;1.57;;
51467;SDS011;37545;45.302;-122.946;2024-03-17T06:38:34;3.83;;;1.17;;
51467;SDS011;37545;45.302;-122.946;2024-03-17T06:41:07;3.92;;;1.20;;
51467;SDS011;37545;45.302;-122.946;2024-03-17T06:43:43;4.70;;;1.10;;
51467;SDS011;37545;45.302;-122.946;2024-03-17T06:46:12;3.83;;;1.20;;
51467;SDS011;37545;45.302;-122.946;2024-03-17T06:48:42;4.80;;;0.98;;
51467;SDS011;37545;45.302;-122.946;2024-03-17T06:51:11;3.08;;;1.30;;
51467;SDS011;37545;45.302;-122.946;2024-03-17T06:53:43;1.88;;;1.20;;
51467;SDS011;37545;45.302;-122.946;2024-03-17T06:56:12;5.30;;;2.60;;
51467;SDS011;37545;45.302;-122.946;2024-03-17T06:58:43;9.73;;;1.40;;
51467;SDS011;37545;45.302;-122.946;2024-03-17T07:01:17;2.03;;;1.40;;
51467;SDS011;37545;45.302;-122.946;2024-03-17T07:03:49;6.78;;;1.25;;
51467;SDS011;37545;45.302;-122.946;2024-03-17T07:06:21;5.00;;;1.60;;
51467;SDS011;37545;45.302;-122.946;2024-03-17T07:08:53;2.53;;;1.02;;
51467;SDS011;37545;45.302;-122.946;2024-03-17T07:11:25;5.05;;;1.50;;
51467;SDS011;37545;45.302;-122.946;2024-03-17T07:13:56;2.88;;;1.20;;
51467;SDS011;37545;45.302;-122.946;2024-03-17T07:16:25;2.65;;;1.25;;
51467;SDS011;37545;45.302;-122.946;2024-03-17T07:19:01;6.65;;;1.58;;
51467;SDS011;37545;45.302;-122.946;2024-03-17T07:21:30;2.63;;;1.30;;
51467;SDS011;37545;45.302;-122.946;2024-03-17T07:24:00;1.83;;;1.05;;
51467;SDS011;37545;45.302;-122.946;2024-03-17T07:26:30;4.15;;;1.40;;
51467;SDS011;37545;45.302;-122.946;2024-03-17T07:29:11;5.28;;;1.55;;
51467;SDS011;37545;45.302;-122.946;2024-03-17T07:31:40;4.70;;;1.42;;
51467;SDS011;37545;45.302;-122.946;2024-03-17T07:34:09;2.53;;;1.15;;
51467;SDS011;37545;45.302;-122.946;2024-03-17T07:36:41;2.72;;;1.30;;
51467;SDS011;37545;45.302;-122.946;2024-03-17T07:39:11;2.55;;;1.40;;
51467;SDS011;37545;45.302;-122.946;2024-03-17T07:41:40;4.43;;;1.50;;
51467;SDS011;37545;45.302;-122.946;2024-03-17T07:44:11;5.15;;;1.30;;
51467;SDS011;37545;45.302;-122.946;2024-03-17T07:46:46;1.80;;;1.05;;
51467;SDS011;37545;45.302;-122.946;2024-03-17T07:49:15;3.40;;;1.20;;
51467;SDS011;37545;45.302;-122.946;2024-03-17T07:51:44;3.05;;;1.10;;
51467;SDS011;37545;45.302;-122.946;2024-03-17T07:54:13;1.42;;;0.90;;
51467;SDS011;37545;45.302;-122.946;2024-03-17T07:56:51;5.97;;;1.08;;
51467;SDS011;37545;45.302;-122.946;2024-03-17T07:59:27;1.00;;;0.80;;
51467;SDS011;37545;45.302;-122.946;2024-03-17T08:01:56;3.78;;;1.20;;
51467;SDS011;37545;45.302;-122.946;2024-03-17T08:04:33;3.72;;;1.30;;
51467;SDS011;37545;45.302;-122.946;2024-03-17T08:07:05;1.65;;;1.02;;
51467;SDS011;37545;45.302;-122.946;2024-03-17T08:09:34;1.65;;;1.10;;
51467;SDS011;37545;45.302;-122.946;2024-03-17T08:12:09;1.67;;;0.90;;
51467;SDS011;37545;45.302;-122.946;2024-03-17T08:14:43;3.10;;;1.08;;
51467;SDS011;37545;45.302;-122.946;2024-03-17T08:17:12;2.05;;;0.90;;
51467;SDS011;37545;45.302;-122.946;2024-03-17T08:19:44;5.35;;;0.95;;
51467;SDS011;37545;45.302;-122.946;2024-03-17T08:22:26;3.53;;;1.25;;
51467;SDS011;37545;45.302;-122.946;2024-03-17T08:24:56;1.70;;;1.27;;
51467;SDS011;37545;45.302;-122.946;2024-03-17T08:27:30;1.90;;;1.05;;
51467;SDS011;37545;45.302;-122.946;2024-03-17T08:30:03;2.35;;;0.85;;
51467;SDS011;37545;45.302;-122.946;2024-03-17T08:32:33;2.55;;;0.90;;
51467;SDS011;37545;45.302;-122.946;2024-03-17T08:35:02;2.33;;;0.95;;
51467;SDS011;37545;45.302;-122.946;2024-03-17T08:37:36;2.97;;;1.25;;
51467;SDS011;37545;45.302;-122.946;2024-03-17T08:40:05;2.20;;;0.90;;
51467;SDS011;37545;45.302;-122.946;2024-03-17T08:42:35;1.15;;;0.75;;
51467;SDS011;37545;45.302;-122.946;2024-03-17T08:45:14;2.38;;;1.00;;
51467;SDS011;37545;45.302;-122.946;2024-03-17T08:47:43;2.03;;;1.10;;
51467;SDS011;37545;45.302;-122.946;2024-03-17T08:50:13;3.30;;;1.30;;
51467;SDS011;37545;45.302;-122.946;2024-03-17T08:52:45;2.22;;;1.40;;
51467;SDS011;37545;45.302;-122.946;2024-03-17T08:55:14;2.78;;;1.08;;
51467;SDS011;37545;45.302;-122.946;2024-03-17T08:57:43;3.97;;;1.60;;
51467;SDS011;37545;45.302;-122.946;2024-03-17T09:00:16;3.03;;;1.40;;
51467;SDS011;37545;45.302;-122.946;2024-03-17T09:02:46;3.03;;;1.20;;
51467;SDS011;37545;45.302;-122.946;2024-03-17T09:05:20;2.35;;;1.13;;
51467;SDS011;37545;45.302;-122.946;2024-03-17T09:07:49;2.65;;;1.20;;
51467;SDS011;37545;45.302;-122.946;2024-03-17T09:10:18;3.22;;;1.33;;
51467;SDS011;37545;45.302;-122.946;2024-03-17T09:12:47;2.15;;;1.15;;
51467;SDS011;37545;45.302;-122.946;2024-03-17T09:15:27;2.75;;;1.38;;
51467;SDS011;37545;45.302;-122.946;2024-03-17T09:17:56;2.55;;;1.20;;
51467;SDS011;37545;45.302;-122.946;2024-03-17T09:20:25;2.35;;;1.23;;
51467;SDS011;37545;45.302;-122.946;2024-03-17T09:23:07;2.13;;;1.35;;
51467;SDS011;37545;45.302;-122.946;2024-03-17T09:25:36;2.47;;;1.33;;
51467;SDS011;37545;45.302;-122.946;2024-03-17T09:28:05;2.35;;;1.20;;
51467;SDS011;37545;45.302;-122.946;2024-03-17T09:30:40;2.13;;;0.90;;
51467;SDS011;37545;45.302;-122.946;2024-03-17T09:33:15;2.42;;;1.27;;
51467;SDS011;37545;45.302;-122.946;2024-03-17T09:35:44;4.10;;;1.30;;
51467;SDS011;37545;45.302;-122.946;2024-03-17T09:38:24;2.35;;;1.38;;
51467;SDS011;37545;45.302;-122.946;2024-03-17T09:40:53;4.18;;;1.40;;
51467;SDS011;37545;45.302;-122.946;2024-03-17T09:43:23;3.95;;;1.10;;
51467;SDS011;37545;45.302;-122.946;2024-03-17T09:45:55;2.65;;;1.52;;
51467;SDS011;37545;45.302;-122.946;2024-03-17T09:48:28;4.25;;;1.45;;
51467;SDS011;37545;45.302;-122.946;2024-03-17T09:50:57;2.72;;;1.35;;
51467;SDS011;37545;45.302;-122.946;2024-03-17T09:53:28;4.20;;;1.50;;
51467;SDS011;37545;45.302;-122.946;2024-03-17T09:56:05;1.83;;;1.05;;
51467;SDS011;37545;45.302;-122.946;2024-03-17T09:58:39;1.98;;;1.00;;
51467;SDS011;37545;45.302;-122.946;2024-03-17T10:01:10;3.20;;;1.10;;
51467;SDS011;37545;45.302;-122.946;2024-03-17T10:03:50;2.35;;;1.40;;
51467;SDS011;37545;45.302;-122.946;2024-03-17T10:06:21;2.83;;;1.45;;
51467;SDS011;37545;45.302;-122.946;2024-03-17T10:08:50;7.60;;;1.20;;
51467;SDS011;37545;45.302;-122.946;2024-03-17T10:11:40;2.67;;;0.90;;
51467;SDS011;37545;45.302;-122.946;2024-03-17T10:14:09;2.65;;;1.17;;
51467;SDS011;37545;45.302;-122.946;2024-03-17T10:16:48;3.08;;;0.93;;
51467;SDS011;37545;45.302;-122.946;2024-03-17T10:19:21;1.83;;;1.30;;
51467;SDS011;37545;45.302;-122.946;2024-03-17T10:21:58;3.83;;;1.17;;
51467;SDS011;37545;45.302;-122.946;2024-03-17T10:24:30;3.92;;;1.60;;
51467;SDS011;37545;45.302;-122.946;2024-03-17T10:27:01;2.97;;;1.23;;
51467;SDS011;37545;45.302;-122.946;2024-03-17T10:29:31;4.50;;;1.52;;
51467;SDS011;37545;45.302;-122.946;2024-03-17T10:32:04;3.17;;;1.73;;
51467;SDS011;37545;45.302;-122.946;2024-03-17T10:34:42;3.00;;;1.35;;
51467;SDS011;37545;45.302;-122.946;2024-03-17T10:37:13;2.83;;;1.50;;
51467;SDS011;37545;45.302;-122.946;2024-03-17T10:39:53;4.28;;;1.20;;
51467;SDS011;37545;45.302;-122.946;2024-03-17T10:42:25;3.75;;;1.90;;
51467;SDS011;37545;45.302;-122.946;2024-03-17T10:44:56;2.70;;;1.67;;
51467;SDS011;37545;45.302;-122.946;2024-03-17T10:47:31;2.22;;;1.67;;
51467;SDS011;37545;45.302;-122.946;2024-03-17T10:50:00;5.07;;;1.90;;
51467;SDS011;37545;45.302;-122.946;2024-03-17T10:52:33;2.70;;;1.42;;
51467;SDS011;37545;45.302;-122.946;2024-03-17T10:55:12;3.05;;;1.48;;
51467;SDS011;37545;45.302;-122.946;2024-03-17T10:57:50;2.50;;;1.20;;
51467;SDS011;37545;45.302;-122.946;2024-03-17T11:00:27;3.33;;;1.20;;
51467;SDS011;37545;45.302;-122.946;2024-03-17T11:02:59;6.68;;;1.40;;
51467;SDS011;37545;45.302;-122.946;2024-03-17T11:05:28;4.80;;;1.90;;
51467;SDS011;37545;45.302;-122.946;2024-03-17T11:07:59;3.35;;;1.45;;
51467;SDS011;37545;45.302;-122.946;2024-03-17T11:10:32;2.75;;;1.45;;
51467;SDS011;37545;45.302;-122.946;2024-03-17T11:13:03;4.38;;;1.60;;
51467;SDS011;37545;45.302;-122.946;2024-03-17T11:15:39;7.65;;;1.60;;
51467;SDS011;37545;45.302;-122.946;2024-03-17T11:21:02;3.63;;;1.30;;
51467;SDS011;37545;45.302;-122.946;2024-03-17T11:23:37;2.00;;;1.20;;
51467;SDS011;37545;45.302;-122.946;2024-03-17T11:26:07;1.95;;;1.30;;
51467;SDS011;37545;45.302;-122.946;2024-03-17T11:28:46;1.38;;;0.95;;
51467;SDS011;37545;45.302;-122.946;2024-03-17T11:34:28;5.57;;;1.77;;
51467;SDS011;37545;45.302;-122.946;2024-03-17T11:37:08;4.45;;;1.40;;
51467;SDS011;37545;45.302;-122.946;2024-03-17T11:40:23;2.30;;;1.38;;
51467;SDS011;37545;45.302;-122.946;2024-03-17T11:43:01;1.90;;;1.02;;
51467;SDS011;37545;45.302;-122.946;2024-03-17T11:45:33;2.50;;;1.45;;
51467;SDS011;37545;45.302;-122.946;2024-03-17T11:48:01;1.75;;;1.35;;
51467;SDS011;37545;45.302;-122.946;2024-03-17T11:50:38;2.25;;;1.35;;
51467;SDS011;37545;45.302;-122.946;2024-03-17T11:53:07;4.55;;;1.80;;
51467;SDS011;37545;45.302;-122.946;2024-03-17T11:55:39;8.98;;;1.83;;
51467;SDS011;37545;45.302;-122.946;2024-03-17T11:58:14;4.88;;;1.30;;
51467;SDS011;37545;45.302;-122.946;2024-03-17T12:00:51;3.83;;;1.20;;
51467;SDS011;37545;45.302;-122.946;2024-03-17T12:03:19;2.65;;;1.58;;
51467;SDS011;37545;45.302;-122.946;2024-03-17T12:05:50;2.33;;;1.35;;
51467;SDS011;37545;45.302;-122.946;2024-03-17T12:08:19;3.78;;;1.58;;
51467;SDS011;37545;45.302;-122.946;2024-03-17T12:10:49;4.88;;;1.30;;
51467;SDS011;37545;45.302;-122.946;2024-03-17T12:13:17;3.22;;;1.30;;
51467;SDS011;37545;45.302;-122.946;2024-03-17T12:15:46;2.65;;;1.10;;
51467;SDS011;37545;45.302;-122.946;2024-03-17T12:18:21;3.55;;;1.35;;
51467;SDS011;37545;45.302;-122.946;2024-03-17T12:20:52;2.38;;;1.15;;
51467;SDS011;37545;45.302;-122.946;2024-03-17T12:23:21;3.45;;;1.58;;
51467;SDS011;37545;45.302;-122.946;2024-03-17T12:25:49;3.88;;;1.33;;
51467;SDS011;37545;45.302;-122.946;2024-03-17T12:28:25;1.55;;;1.08;;
51467;SDS011;37545;45.302;-122.946;2024-03-17T12:30:52;3.15;;;1.13;;
51467;SDS011;37545;45.302;-122.946;2024-03-17T12:33:24;2.63;;;1.63;;
51467;SDS011;37545;45.302;-122.946;2024-03-17T12:35:56;1.30;;;1.10;;
51467;SDS011;37545;45.302;-122.946;2024-03-17T12:38:35;3.60;;;1.40;;
51467;SDS011;37545;45.302;-122.946;2024-03-17T12:41:02;3.92;;;1.98;;
51467;SDS011;37545;45.302;-122.946;2024-03-17T12:43:47;2.20;;;1.50;;
51467;SDS011;37545;45.302;-122.946;2024-03-17T12:46:15;2.28;;;1.35;;
51467;SDS011;37545;45.302;-122.946;2024-03-17T12:48:44;2.30;;;1.30;;
51467;SDS011;37545;45.302;-122.946;2024-03-17T12:51:16;4.78;;;1.73;;
51467;SDS011;37545;45.302;-122.946;2024-03-17T12:53:49;2.10;;;1.63;;
51467;SDS011;37545;45.302;-122.946;2024-03-17T12:56:22;6.63;;;1.60;;
51467;SDS011;37545;45.302;-122.946;2024-03-17T12:59:08;1.88;;;1.13;;
51467;SDS011;37545;45.302;-122.946;2024-03-17T13:02:02;6.90;;;1.50;;
51467;SDS011;37545;45.302;-122.946;2024-03-17T13:04:37;1.60;;;1.13;;
51467;SDS011;37545;45.302;-122.946;2024-03-17T13:07:12;3.90;;;1.33;;
51467;SDS011;37545;45.302;-122.946;2024-03-17T13:09:51;1.55;;;1.23;;
51467;SDS011;37545;45.302;-122.946;2024-03-17T13:12:20;4.78;;;1.42;;
51467;SDS011;37545;45.302;-122.946;2024-03-17T13:14:50;4.30;;;1.55;;
51467;SDS011;37545;45.302;-122.946;2024-03-17T13:17:27;2.10;;;1.40;;
51467;SDS011;37545;45.302;-122.946;2024-03-17T13:19:59;4.65;;;1.30;;
51467;SDS011;37545;45.302;-122.946;2024-03-17T13:22:30;7.53;;;2.00;;
51467;SDS011;37545;45.302;-122.946;2024-03-17T13:25:04;3.88;;;1.45;;
51467;SDS011;37545;45.302;-122.946;2024-03-17T13:27:34;3.30;;;1.45;;
51467;SDS011;37545;45.302;-122.946;2024-03-17T13:30:03;2.50;;;1.30;;
51467;SDS011;37545;45.302;-122.946;2024-03-17T13:32:34;2.78;;;1.55;;
51467;SDS011;37545;45.302;-122.946;2024-03-17T13:35:13;3.40;;;1.25;;
51467;SDS011;37545;45.302;-122.946;2024-03-17T13:37:46;2.85;;;1.52;;
51467;SDS011;37545;45.302;-122.946;2024-03-17T13:40:17;2.42;;;1.50;;
51467;SDS011;37545;45.302;-122.946;2024-03-17T13:42:50;1.75;;;1.13;;
51467;SDS011;37545;45.302;-122.946;2024-03-17T13:45:21;2.28;;;1.30;;
51467;SDS011;37545;45.302;-122.946;2024-03-17T13:47:54;2.58;;;1.30;;
51467;SDS011;37545;45.302;-122.946;2024-03-17T13:50:36;2.40;;;1.40;;
51467;SDS011;37545;45.302;-122.946;2024-03-17T13:53:11;2.63;;;1.35;;
51467;SDS011;37545;45.302;-122.946;2024-03-17T13:55:47;3.00;;;1.67;;
51467;SDS011;37545;45.302;-122.946;2024-03-17T13:58:17;2.33;;;1.50;;
51467;SDS011;37545;45.302;-122.946;2024-03-17T14:00:46;3.40;;;1.38;;
51467;SDS011;37545;45.302;-122.946;2024-03-17T14:03:15;2.83;;;1.50;;
51467;SDS011;37545;45.302;-122.946;2024-03-17T14:05:46;1.98;;;1.30;;
51467;SDS011;37545;45.302;-122.946;2024-03-17T14:08:17;3.53;;;1.23;;
51467;SDS011;37545;45.302;-122.946;2024-03-17T14:10:46;2.97;;;1.50;;
51467;SDS011;37545;45.302;-122.946;2024-03-17T14:13:15;2.65;;;1.60;;
51467;SDS011;37545;45.302;-122.946;2024-03-17T14:15:46;5.60;;;2.60;;
51467;SDS011;37545;45.302;-122.946;2024-03-17T14:18:15;2.65;;;1.58;;
51467;SDS011;37545;45.302;-122.946;2024-03-17T14:20:44;5.43;;;1.75;;
51467;SDS011;37545;45.302;-122.946;2024-03-17T14:23:13;2.92;;;1.75;;
51467;SDS011;37545;45.302;-122.946;2024-03-17T14:25:44;2.53;;;1.60;;
51467;SDS011;37545;45.302;-122.946;2024-03-17T14:28:13;6.30;;;2.05;;
51467;SDS011;37545;45.302;-122.946;2024-03-17T14:30:42;3.22;;;1.83;;
51467;SDS011;37545;45.302;-122.946;2024-03-17T14:33:11;5.05;;;1.52;;
51467;SDS011;37545;45.302;-122.946;2024-03-17T14:35:40;4.43;;;1.73;;
51467;SDS011;37545;45.302;-122.946;2024-03-17T14:38:10;2.58;;;1.55;;
51467;SDS011;37545;45.302;-122.946;2024-03-17T14:40:43;3.33;;;1.58;;
51467;SDS011;37545;45.302;-122.946;2024-03-17T14:43:12;2.92;;;1.55;;